Domino, Texas
Current Conditions -  °F | °C
As of 6:53 PM on Sunday 21 Dec 2014 (Local Time) from KTXK Reporting Station
Scattered Clouds Scattered Clouds  
Wind Chill: 47°   Ceiling: Unl
Heat Index: 49°   Visibility: 10mi
Dew Point: 45°   Wind: 5mph
Humidity: 86%   Direction: 130°SE
Pressure: 29.91"   Gusts: NA
Location:  33.2185°N, 94.1365°W
Report Text: KTXK 220053Z 13004KT 10SM SCT033 09/07 A2991 RMK AO2 SLP127 T00940072
Loading
Personal Weather Stations






























Interactive Weather Map New forecast layout! Learn more

10-Day Weather Forecast

Advertisements
Track Severe Weather on mobile